sensor_id;sensor_type;location;lat;lon;timestamp;temperature;humidity
74178;DHT22;62540;48.456;-4.456;2023-02-28T00:02:13;5.78;64.36
74178;DHT22;62540;48.456;-4.456;2023-02-28T00:04:38;5.85;64.34
74178;DHT22;62540;48.456;-4.456;2023-02-28T00:07:04;5.83;64.34
74178;DHT22;62540;48.456;-4.456;2023-02-28T00:09:29;5.87;64.03
74178;DHT22;62540;48.456;-4.456;2023-02-28T00:11:54;5.93;64.03
74178;DHT22;62540;48.456;-4.456;2023-02-28T00:14:20;5.93;63.90
74178;DHT22;62540;48.456;-4.456;2023-02-28T00:16:45;5.98;63.99
74178;DHT22;62540;48.456;-4.456;2023-02-28T00:19:11;5.98;63.98
74178;DHT22;62540;48.456;-4.456;2023-02-28T00:21:38;6.01;64.02
74178;DHT22;62540;48.456;-4.456;2023-02-28T00:24:06;6.03;63.93
74178;DHT22;62540;48.456;-4.456;2023-02-28T00:26:32;6.06;63.65
74178;DHT22;62540;48.456;-4.456;2023-02-28T00:28:57;6.04;63.49
74178;DHT22;62540;48.456;-4.456;2023-02-28T00:31:22;6.06;63.60
74178;DHT22;62540;48.456;-4.456;2023-02-28T00:33:48;6.07;63.22
74178;DHT22;62540;48.456;-4.456;2023-02-28T00:36:13;6.04;63.33
74178;DHT22;62540;48.456;-4.456;2023-02-28T00:38:40;6.04;63.63
74178;DHT22;62540;48.456;-4.456;2023-02-28T00:41:06;6.06;63.69
74178;DHT22;62540;48.456;-4.456;2023-02-28T00:43:37;6.04;63.81
74178;DHT22;62540;48.456;-4.456;2023-02-28T00:46:03;6.04;63.90
74178;DHT22;62540;48.456;-4.456;2023-02-28T00:48:28;6.06;63.96
74178;DHT22;62540;48.456;-4.456;2023-02-28T00:50:54;6.06;64.02
74178;DHT22;62540;48.456;-4.456;2023-02-28T00:53:19;6.06;64.18
74178;DHT22;62540;48.456;-4.456;2023-02-28T00:55:45;6.07;64.46
74178;DHT22;62540;48.456;-4.456;2023-02-28T00:58:10;6.06;64.52
74178;DHT22;62540;48.456;-4.456;2023-02-28T01:00:36;6.10;64.45
74178;DHT22;62540;48.456;-4.456;2023-02-28T01:03:01;6.08;64.47
74178;DHT22;62540;48.456;-4.456;2023-02-28T01:05:27;6.10;64.86
74178;DHT22;62540;48.456;-4.456;2023-02-28T01:07:52;6.13;64.85
74178;DHT22;62540;48.456;-4.456;2023-02-28T01:10:17;6.13;64.86
74178;DHT22;62540;48.456;-4.456;2023-02-28T01:12:43;6.21;64.95
74178;DHT22;62540;48.456;-4.456;2023-02-28T01:15:10;6.21;65.04
74178;DHT22;62540;48.456;-4.456;2023-02-28T01:17:36;6.22;65.06
74178;DHT22;62540;48.456;-4.456;2023-02-28T01:20:02;6.29;65.27
74178;DHT22;62540;48.456;-4.456;2023-02-28T01:22:28;6.32;65.47
74178;DHT22;62540;48.456;-4.456;2023-02-28T01:24:53;6.36;65.54
74178;DHT22;62540;48.456;-4.456;2023-02-28T01:27:19;6.39;65.50
74178;DHT22;62540;48.456;-4.456;2023-02-28T01:29:44;6.44;65.42
74178;DHT22;62540;48.456;-4.456;2023-02-28T01:32:10;6.48;65.37
74178;DHT22;62540;48.456;-4.456;2023-02-28T01:34:35;6.49;65.42
74178;DHT22;62540;48.456;-4.456;2023-02-28T01:37:00;6.52;65.26
74178;DHT22;62540;48.456;-4.456;2023-02-28T01:39:26;6.53;65.30
74178;DHT22;62540;48.456;-4.456;2023-02-28T01:41:52;6.55;65.36
74178;DHT22;62540;48.456;-4.456;2023-02-28T01:44:55;6.65;65.10
74178;DHT22;62540;48.456;-4.456;2023-02-28T01:47:22;6.64;64.69
74178;DHT22;62540;48.456;-4.456;2023-02-28T01:49:49;6.66;64.86
74178;DHT22;62540;48.456;-4.456;2023-02-28T01:52:17;6.69;64.68
74178;DHT22;62540;48.456;-4.456;2023-02-28T01:54:47;6.72;64.65
74178;DHT22;62540;48.456;-4.456;2023-02-28T01:57:17;6.79;64.62
74178;DHT22;62540;48.456;-4.456;2023-02-28T02:02:14;6.79;64.80
74178;DHT22;62540;48.456;-4.456;2023-02-28T02:04:51;6.83;64.62
74178;DHT22;62540;48.456;-4.456;2023-02-28T02:07:18;6.85;64.59
74178;DHT22;62540;48.456;-4.456;2023-02-28T02:09:44;6.89;64.73
74178;DHT22;62540;48.456;-4.456;2023-02-28T02:12:26;6.93;64.44
74178;DHT22;62540;48.456;-4.456;2023-02-28T02:15:02;6.94;64.41
74178;DHT22;62540;48.456;-4.456;2023-02-28T02:17:54;6.99;64.23
74178;DHT22;62540;48.456;-4.456;2023-02-28T02:20:51;7.03;64.20
74178;DHT22;62540;48.456;-4.456;2023-02-28T02:32:28;7.06;64.19
74178;DHT22;62540;48.456;-4.456;2023-02-28T02:35:14;7.06;64.14
74178;DHT22;62540;48.456;-4.456;2023-02-28T02:37:48;7.11;64.15
74178;DHT22;62540;48.456;-4.456;2023-02-28T02:40:38;7.11;64.34
74178;DHT22;62540;48.456;-4.456;2023-02-28T02:43:15;7.14;64.36
74178;DHT22;62540;48.456;-4.456;2023-02-28T02:45:49;7.20;64.25
74178;DHT22;62540;48.456;-4.456;2023-02-28T02:48:19;7.20;64.15
74178;DHT22;62540;48.456;-4.456;2023-02-28T02:50:52;7.24;64.23
74178;DHT22;62540;48.456;-4.456;2023-02-28T02:53:24;7.27;64.24
74178;DHT22;62540;48.456;-4.456;2023-02-28T02:55:52;7.30;64.12
74178;DHT22;62540;48.456;-4.456;2023-02-28T02:58:23;7.31;64.12
74178;DHT22;62540;48.456;-4.456;2023-02-28T03:00:53;7.32;64.48
74178;DHT22;62540;48.456;-4.456;2023-02-28T03:03:21;7.31;64.72
74178;DHT22;62540;48.456;-4.456;2023-02-28T03:05:55;7.32;64.74
74178;DHT22;62540;48.456;-4.456;2023-02-28T03:08:21;7.35;64.96
74178;DHT22;62540;48.456;-4.456;2023-02-28T03:10:51;7.34;64.99
74178;DHT22;62540;48.456;-4.456;2023-02-28T03:14:02;7.38;64.69
74178;DHT22;62540;48.456;-4.456;2023-02-28T03:16:55;7.40;64.30
74178;DHT22;62540;48.456;-4.456;2023-02-28T03:19:33;7.40;64.18
74178;DHT22;62540;48.456;-4.456;2023-02-28T03:24:49;7.40;64.29
74178;DHT22;62540;48.456;-4.456;2023-02-28T03:27:30;7.41;64.09
74178;DHT22;62540;48.456;-4.456;2023-02-28T03:30:04;7.35;64.03
74178;DHT22;62540;48.456;-4.456;2023-02-28T03:35:14;7.32;64.11
74178;DHT22;62540;48.456;-4.456;2023-02-28T03:37:50;7.30;64.04
74178;DHT22;62540;48.456;-4.456;2023-02-28T03:40:21;7.28;64.32
74178;DHT22;62540;48.456;-4.456;2023-02-28T03:42:51;7.25;64.04
74178;DHT22;62540;48.456;-4.456;2023-02-28T03:45:25;7.25;63.72
74178;DHT22;62540;48.456;-4.456;2023-02-28T03:47:59;7.27;63.61
74178;DHT22;62540;48.456;-4.456;2023-02-28T03:50:40;7.21;63.45
74178;DHT22;62540;48.456;-4.456;2023-02-28T03:55:45;7.14;63.13
74178;DHT22;62540;48.456;-4.456;2023-02-28T04:01:23;7.14;63.37
74178;DHT22;62540;48.456;-4.456;2023-02-28T04:03:50;7.14;63.40
74178;DHT22;62540;48.456;-4.456;2023-02-28T04:06:18;7.15;63.68
74178;DHT22;62540;48.456;-4.456;2023-02-28T04:08:44;7.15;63.95
74178;DHT22;62540;48.456;-4.456;2023-02-28T04:13:46;7.18;64.22
74178;DHT22;62540;48.456;-4.456;2023-02-28T04:16:12;7.20;64.17
74178;DHT22;62540;48.456;-4.456;2023-02-28T04:18:39;7.17;64.69
74178;DHT22;62540;48.456;-4.456;2023-02-28T04:21:05;7.21;64.61
74178;DHT22;62540;48.456;-4.456;2023-02-28T04:23:31;7.20;64.76
74178;DHT22;62540;48.456;-4.456;2023-02-28T04:25:57;7.24;64.69
74178;DHT22;62540;48.456;-4.456;2023-02-28T04:28:22;7.25;65.16
74178;DHT22;62540;48.456;-4.456;2023-02-28T04:30:53;7.30;65.06
74178;DHT22;62540;48.456;-4.456;2023-02-28T04:33:18;7.31;65.02
74178;DHT22;62540;48.456;-4.456;2023-02-28T04:35:44;7.36;65.19
74178;DHT22;62540;48.456;-4.456;2023-02-28T04:38:09;7.30;65.48
74178;DHT22;62540;48.456;-4.456;2023-02-28T04:40:35;7.30;65.66
74178;DHT22;62540;48.456;-4.456;2023-02-28T04:43:00;7.27;66.33
74178;DHT22;62540;48.456;-4.456;2023-02-28T04:45:26;7.27;66.02
74178;DHT22;62540;48.456;-4.456;2023-02-28T04:47:51;7.28;66.31
74178;DHT22;62540;48.456;-4.456;2023-02-28T04:50:17;7.25;66.36
74178;DHT22;62540;48.456;-4.456;2023-02-28T04:52:42;7.27;66.40
74178;DHT22;62540;48.456;-4.456;2023-02-28T04:55:07;7.31;66.65
74178;DHT22;62540;48.456;-4.456;2023-02-28T04:57:33;7.32;66.54
74178;DHT22;62540;48.456;-4.456;2023-02-28T04:59:58;7.36;66.74
74178;DHT22;62540;48.456;-4.456;2023-02-28T05:02:24;7.35;66.53
74178;DHT22;62540;48.456;-4.456;2023-02-28T05:04:49;7.36;66.63
74178;DHT22;62540;48.456;-4.456;2023-02-28T05:07:14;7.35;66.75
74178;DHT22;62540;48.456;-4.456;2023-02-28T05:09:40;7.35;66.84
74178;DHT22;62540;48.456;-4.456;2023-02-28T05:12:05;7.31;66.45
74178;DHT22;62540;48.456;-4.456;2023-02-28T05:14:31;7.32;66.51
74178;DHT22;62540;48.456;-4.456;2023-02-28T05:16:56;7.34;66.61
74178;DHT22;62540;48.456;-4.456;2023-02-28T05:19:21;7.34;66.62
74178;DHT22;62540;48.456;-4.456;2023-02-28T05:21:54;7.32;66.63
74178;DHT22;62540;48.456;-4.456;2023-02-28T05:24:21;7.35;66.69
74178;DHT22;62540;48.456;-4.456;2023-02-28T05:26:51;7.36;66.67
74178;DHT22;62540;48.456;-4.456;2023-02-28T05:29:18;7.36;66.72
74178;DHT22;62540;48.456;-4.456;2023-02-28T05:31:44;7.36;67.26
74178;DHT22;62540;48.456;-4.456;2023-02-28T05:34:09;7.41;66.87
74178;DHT22;62540;48.456;-4.456;2023-02-28T05:36:38;7.41;66.98
74178;DHT22;62540;48.456;-4.456;2023-02-28T05:39:05;7.43;67.50
74178;DHT22;62540;48.456;-4.456;2023-02-28T05:41:30;7.44;67.53
74178;DHT22;62540;48.456;-4.456;2023-02-28T05:43:57;7.43;67.52
74178;DHT22;62540;48.456;-4.456;2023-02-28T05:46:23;7.44;67.85
74178;DHT22;62540;48.456;-4.456;2023-02-28T05:48:48;7.44;68.03
74178;DHT22;62540;48.456;-4.456;2023-02-28T05:51:14;7.43;68.49
74178;DHT22;62540;48.456;-4.456;2023-02-28T05:53:39;7.45;68.55
74178;DHT22;62540;48.456;-4.456;2023-02-28T05:56:05;7.50;68.43
74178;DHT22;62540;48.456;-4.456;2023-02-28T05:58:31;7.54;68.59
74178;DHT22;62540;48.456;-4.456;2023-02-28T06:00:58;7.52;68.59
74178;DHT22;62540;48.456;-4.456;2023-02-28T06:03:24;7.54;68.63
74178;DHT22;62540;48.456;-4.456;2023-02-28T06:05:49;7.58;68.62
74178;DHT22;62540;48.456;-4.456;2023-02-28T06:08:15;7.56;68.51
74178;DHT22;62540;48.456;-4.456;2023-02-28T06:10:41;7.64;68.32
74178;DHT22;62540;48.456;-4.456;2023-02-28T06:13:06;7.65;68.35
74178;DHT22;62540;48.456;-4.456;2023-02-28T06:15:32;7.65;68.30
74178;DHT22;62540;48.456;-4.456;2023-02-28T06:17:57;7.66;68.34
74178;DHT22;62540;48.456;-4.456;2023-02-28T06:20:25;7.69;68.04
74178;DHT22;62540;48.456;-4.456;2023-02-28T06:22:54;7.69;67.92
74178;DHT22;62540;48.456;-4.456;2023-02-28T06:25:21;7.71;67.90
74178;DHT22;62540;48.456;-4.456;2023-02-28T06:27:47;7.73;67.82
74178;DHT22;62540;48.456;-4.456;2023-02-28T06:30:13;7.73;67.75
74178;DHT22;62540;48.456;-4.456;2023-02-28T06:32:39;7.71;67.65
74178;DHT22;62540;48.456;-4.456;2023-02-28T06:35:05;7.68;67.69
74178;DHT22;62540;48.456;-4.456;2023-02-28T06:37:31;7.64;67.80
74178;DHT22;62540;48.456;-4.456;2023-02-28T06:39:57;7.62;67.72
74178;DHT22;62540;48.456;-4.456;2023-02-28T06:42:24;7.58;67.68
74178;DHT22;62540;48.456;-4.456;2023-02-28T06:44:54;7.52;67.77
74178;DHT22;62540;48.456;-4.456;2023-02-28T06:47:20;7.54;67.73
74178;DHT22;62540;48.456;-4.456;2023-02-28T06:49:45;7.52;68.19
74178;DHT22;62540;48.456;-4.456;2023-02-28T06:52:11;7.54;68.09
74178;DHT22;62540;48.456;-4.456;2023-02-28T06:54:37;7.51;67.89
74178;DHT22;62540;48.456;-4.456;2023-02-28T06:57:02;7.51;67.93
74178;DHT22;62540;48.456;-4.456;2023-02-28T06:59:28;7.50;67.94
74178;DHT22;62540;48.456;-4.456;2023-02-28T07:01:53;7.47;67.89
74178;DHT22;62540;48.456;-4.456;2023-02-28T07:04:20;7.47;68.10
74178;DHT22;62540;48.456;-4.456;2023-02-28T07:06:45;7.44;68.13
74178;DHT22;62540;48.456;-4.456;2023-02-28T07:09:11;7.48;68.07
74178;DHT22;62540;48.456;-4.456;2023-02-28T07:11:36;7.43;67.90
74178;DHT22;62540;48.456;-4.456;2023-02-28T07:14:01;7.44;67.52
74178;DHT22;62540;48.456;-4.456;2023-02-28T07:16:27;7.43;66.97
74178;DHT22;62540;48.456;-4.456;2023-02-28T07:18:53;7.38;66.87
74178;DHT22;62540;48.456;-4.456;2023-02-28T07:21:19;7.40;66.76
74178;DHT22;62540;48.456;-4.456;2023-02-28T07:23:44;7.40;66.62
74178;DHT22;62540;48.456;-4.456;2023-02-28T07:26:12;7.34;66.54
74178;DHT22;62540;48.456;-4.456;2023-02-28T07:28:43;7.35;66.48
74178;DHT22;62540;48.456;-4.456;2023-02-28T07:31:09;7.36;66.32
74178;DHT22;62540;48.456;-4.456;2023-02-28T07:33:35;7.36;66.18
74178;DHT22;62540;48.456;-4.456;2023-02-28T07:36:06;7.41;65.91
74178;DHT22;62540;48.456;-4.456;2023-02-28T07:38:36;7.40;65.93
74178;DHT22;62540;48.456;-4.456;2023-02-28T07:41:03;7.47;66.02
74178;DHT22;62540;48.456;-4.456;2023-02-28T07:43:32;7.55;65.71
74178;DHT22;62540;48.456;-4.456;2023-02-28T07:46:03;7.58;65.27
74178;DHT22;62540;48.456;-4.456;2023-02-28T07:48:29;7.58;65.28
74178;DHT22;62540;48.456;-4.456;2023-02-28T07:50:55;7.64;65.34
74178;DHT22;62540;48.456;-4.456;2023-02-28T07:53:21;7.66;65.02
74178;DHT22;62540;48.456;-4.456;2023-02-28T07:55:47;7.69;65.19
74178;DHT22;62540;48.456;-4.456;2023-02-28T07:58:13;7.73;64.75
74178;DHT22;62540;48.456;-4.456;2023-02-28T08:00:38;7.78;64.67
74178;DHT22;62540;48.456;-4.456;2023-02-28T08:03:04;7.82;64.67
74178;DHT22;62540;48.456;-4.456;2023-02-28T08:05:29;7.81;65.19
74178;DHT22;62540;48.456;-4.456;2023-02-28T08:07:55;7.83;65.28
74178;DHT22;62540;48.456;-4.456;2023-02-28T08:10:21;7.86;65.14
74178;DHT22;62540;48.456;-4.456;2023-02-28T08:12:46;7.92;65.02
74178;DHT22;62540;48.456;-4.456;2023-02-28T08:15:12;7.97;64.64
74178;DHT22;62540;48.456;-4.456;2023-02-28T08:17:37;8.00;63.95
74178;DHT22;62540;48.456;-4.456;2023-02-28T08:20:02;7.99;63.36
74178;DHT22;62540;48.456;-4.456;2023-02-28T08:22:29;8.04;63.96
74178;DHT22;62540;48.456;-4.456;2023-02-28T08:24:54;8.12;63.00
74178;DHT22;62540;48.456;-4.456;2023-02-28T08:27:20;8.16;62.49
74178;DHT22;62540;48.456;-4.456;2023-02-28T08:29:45;8.21;62.57
74178;DHT22;62540;48.456;-4.456;2023-02-28T08:32:11;8.24;62.36
74178;DHT22;62540;48.456;-4.456;2023-02-28T08:34:39;8.29;61.90
74178;DHT22;62540;48.456;-4.456;2023-02-28T08:37:04;8.33;62.56
74178;DHT22;62540;48.456;-4.456;2023-02-28T08:39:29;8.37;63.46
74178;DHT22;62540;48.456;-4.456;2023-02-28T08:41:55;8.40;63.41
74178;DHT22;62540;48.456;-4.456;2023-02-28T08:44:20;8.43;62.71
74178;DHT22;62540;48.456;-4.456;2023-02-28T08:46:46;8.41;62.12
74178;DHT22;62540;48.456;-4.456;2023-02-28T08:49:11;8.43;62.08
74178;DHT22;62540;48.456;-4.456;2023-02-28T08:51:38;8.41;62.36
74178;DHT22;62540;48.456;-4.456;2023-02-28T08:54:03;8.44;62.41
74178;DHT22;62540;48.456;-4.456;2023-02-28T08:56:29;8.43;61.93
74178;DHT22;62540;48.456;-4.456;2023-02-28T08:58:56;8.43;61.79
74178;DHT22;62540;48.456;-4.456;2023-02-28T09:01:26;8.44;62.00
74178;DHT22;62540;48.456;-4.456;2023-02-28T09:03:53;8.52;62.15
74178;DHT22;62540;48.456;-4.456;2023-02-28T09:06:20;8.60;61.46
74178;DHT22;62540;48.456;-4.456;2023-02-28T09:08:46;8.68;61.53
74178;DHT22;62540;48.456;-4.456;2023-02-28T09:11:12;8.61;61.47
74178;DHT22;62540;48.456;-4.456;2023-02-28T09:13:38;8.65;61.71
74178;DHT22;62540;48.456;-4.456;2023-02-28T09:16:07;8.72;61.73
74178;DHT22;62540;48.456;-4.456;2023-02-28T09:18:35;8.72;61.80
74178;DHT22;62540;48.456;-4.456;2023-02-28T09:21:04;8.75;61.32
74178;DHT22;62540;48.456;-4.456;2023-02-28T09:23:29;8.73;61.30
74178;DHT22;62540;48.456;-4.456;2023-02-28T09:25:55;8.71;60.77
74178;DHT22;62540;48.456;-4.456;2023-02-28T09:28:21;8.60;60.85
74178;DHT22;62540;48.456;-4.456;2023-02-28T09:30:49;8.54;60.98
74178;DHT22;62540;48.456;-4.456;2023-02-28T09:33:15;8.47;61.33
74178;DHT22;62540;48.456;-4.456;2023-02-28T09:35:42;8.45;61.44
74178;DHT22;62540;48.456;-4.456;2023-02-28T09:38:09;8.45;61.36
74178;DHT22;62540;48.456;-4.456;2023-02-28T09:40:48;8.44;61.59
74178;DHT22;62540;48.456;-4.456;2023-02-28T09:43:16;8.48;61.66
74178;DHT22;62540;48.456;-4.456;2023-02-28T09:45:50;8.52;61.71
74178;DHT22;62540;48.456;-4.456;2023-02-28T09:48:20;8.55;61.94
74178;DHT22;62540;48.456;-4.456;2023-02-28T09:50:50;8.57;61.84
74178;DHT22;62540;48.456;-4.456;2023-02-28T09:53:21;8.61;62.75
74178;DHT22;62540;48.456;-4.456;2023-02-28T09:55:55;8.68;62.19
74178;DHT22;62540;48.456;-4.456;2023-02-28T09:58:28;8.79;62.06
74178;DHT22;62540;48.456;-4.456;2023-02-28T10:03:56;8.96;62.01
74178;DHT22;62540;48.456;-4.456;2023-02-28T10:06:27;8.99;62.16
74178;DHT22;62540;48.456;-4.456;2023-02-28T10:09:24;9.09;61.39
74178;DHT22;62540;48.456;-4.456;2023-02-28T10:11:56;9.13;61.30
74178;DHT22;62540;48.456;-4.456;2023-02-28T10:14:24;9.13;61.28
74178;DHT22;62540;48.456;-4.456;2023-02-28T10:17:02;9.18;61.34
74178;DHT22;62540;48.456;-4.456;2023-02-28T10:22:19;9.09;60.83
74178;DHT22;62540;48.456;-4.456;2023-02-28T10:24:48;9.03;60.94
74178;DHT22;62540;48.456;-4.456;2023-02-28T10:27:21;9.03;61.59
74178;DHT22;62540;48.456;-4.456;2023-02-28T10:29:49;9.02;61.17
74178;DHT22;62540;48.456;-4.456;2023-02-28T10:32:18;8.96;61.01
74178;DHT22;62540;48.456;-4.456;2023-02-28T10:34:44;8.93;60.67
74178;DHT22;62540;48.456;-4.456;2023-02-28T10:37:11;8.91;60.82
74178;DHT22;62540;48.456;-4.456;2023-02-28T10:39:42;8.86;61.09
74178;DHT22;62540;48.456;-4.456;2023-02-28T10:42:37;8.93;61.82
74178;DHT22;62540;48.456;-4.456;2023-02-28T10:45:12;8.96;61.58
74178;DHT22;62540;48.456;-4.456;2023-02-28T10:48:02;9.05;62.34
74178;DHT22;62540;48.456;-4.456;2023-02-28T11:03:59;9.36;62.82
74178;DHT22;62540;48.456;-4.456;2023-02-28T11:06:33;9.37;62.50
74178;DHT22;62540;48.456;-4.456;2023-02-28T11:09:18;9.33;62.38
74178;DHT22;62540;48.456;-4.456;2023-02-28T11:11:46;9.33;62.72
74178;DHT22;62540;48.456;-4.456;2023-02-28T11:14:20;9.31;63.01
74178;DHT22;62540;48.456;-4.456;2023-02-28T11:16:48;9.22;63.29
74178;DHT22;62540;48.456;-4.456;2023-02-28T11:19:29;9.10;63.96
74178;DHT22;62540;48.456;-4.456;2023-02-28T11:21:59;8.92;65.54
74178;DHT22;62540;48.456;-4.456;2023-02-28T11:24:37;8.71;66.88
74178;DHT22;62540;48.456;-4.456;2023-02-28T11:27:25;8.65;67.30
74178;DHT22;62540;48.456;-4.456;2023-02-28T11:29:50;8.65;67.26
74178;DHT22;62540;48.456;-4.456;2023-02-28T11:32:20;8.61;68.38
74178;DHT22;62540;48.456;-4.456;2023-02-28T11:34:47;8.64;68.08
74178;DHT22;62540;48.456;-4.456;2023-02-28T11:37:26;8.62;68.00
74178;DHT22;62540;48.456;-4.456;2023-02-28T11:39:52;8.61;68.88
74178;DHT22;62540;48.456;-4.456;2023-02-28T11:47:48;9.50;70.73
74178;DHT22;62540;48.456;-4.456;2023-02-28T11:53:11;10.47;67.95
74178;DHT22;62540;48.456;-4.456;2023-02-28T11:55:42;10.94;65.98
74178;DHT22;62540;48.456;-4.456;2023-02-28T12:06:33;10.88;63.06
74178;DHT22;62540;48.456;-4.456;2023-02-28T12:11:53;10.43;63.64
74178;DHT22;62540;48.456;-4.456;2023-02-28T12:14:41;10.06;64.09
74178;DHT22;62540;48.456;-4.456;2023-02-28T12:17:28;9.60;65.93
74178;DHT22;62540;48.456;-4.456;2023-02-28T12:23:19;9.27;69.45
74178;DHT22;62540;48.456;-4.456;2023-02-28T12:26:00;9.30;69.77
74178;DHT22;62540;48.456;-4.456;2023-02-28T12:28:31;9.46;68.97
74178;DHT22;62540;48.456;-4.456;2023-02-28T12:31:14;9.61;69.04
74178;DHT22;62540;48.456;-4.456;2023-02-28T12:33:50;9.61;67.71
74178;DHT22;62540;48.456;-4.456;2023-02-28T12:36:19;9.62;68.64
74178;DHT22;62540;48.456;-4.456;2023-02-28T12:41:33;9.60;67.55
74178;DHT22;62540;48.456;-4.456;2023-02-28T12:44:08;9.57;68.98
74178;DHT22;62540;48.456;-4.456;2023-02-28T12:46:40;9.46;68.08
74178;DHT22;62540;48.456;-4.456;2023-02-28T12:49:19;9.31;67.84
74178;DHT22;62540;48.456;-4.456;2023-02-28T12:51:47;9.05;67.35
74178;DHT22;62540;48.456;-4.456;2023-02-28T12:54:24;8.78;67.59
74178;DHT22;62540;48.456;-4.456;2023-02-28T12:56:56;8.78;67.91
74178;DHT22;62540;48.456;-4.456;2023-02-28T13:10:11;9.36;70.10
74178;DHT22;62540;48.456;-4.456;2023-02-28T13:12:50;9.48;69.29
74178;DHT22;62540;48.456;-4.456;2023-02-28T13:15:26;9.58;69.59
74178;DHT22;62540;48.456;-4.456;2023-02-28T13:17:56;9.58;68.85
74178;DHT22;62540;48.456;-4.456;2023-02-28T13:20:29;9.65;69.10
74178;DHT22;62540;48.456;-4.456;2023-02-28T13:22:56;9.77;69.35
74178;DHT22;62540;48.456;-4.456;2023-02-28T13:27:54;9.81;67.82
74178;DHT22;62540;48.456;-4.456;2023-02-28T13:38:50;10.36;66.43
74178;DHT22;62540;48.456;-4.456;2023-02-28T13:46:32;10.23;65.58
74178;DHT22;62540;48.456;-4.456;2023-02-28T13:51:48;9.94;65.93
74178;DHT22;62540;48.456;-4.456;2023-02-28T14:05:15;9.71;66.38
74178;DHT22;62540;48.456;-4.456;2023-02-28T14:07:53;9.91;66.76
74178;DHT22;62540;48.456;-4.456;2023-02-28T14:10:31;10.16;66.96
74178;DHT22;62540;48.456;-4.456;2023-02-28T14:12:59;10.49;66.49
74178;DHT22;62540;48.456;-4.456;2023-02-28T14:15:30;10.63;65.76
74178;DHT22;62540;48.456;-4.456;2023-02-28T14:18:02;10.66;64.97
74178;DHT22;62540;48.456;-4.456;2023-02-28T14:20:31;10.66;64.86
74178;DHT22;62540;48.456;-4.456;2023-02-28T14:23:26;10.68;64.58
74178;DHT22;62540;48.456;-4.456;2023-02-28T14:26:10;10.70;64.34
74178;DHT22;62540;48.456;-4.456;2023-02-28T14:31:42;10.85;63.60
74178;DHT22;62540;48.456;-4.456;2023-02-28T14:36:44;11.03;65.06
74178;DHT22;62540;48.456;-4.456;2023-02-28T14:39:14;11.11;63.98
74178;DHT22;62540;48.456;-4.456;2023-02-28T14:41:41;11.04;64.21
74178;DHT22;62540;48.456;-4.456;2023-02-28T14:44:20;10.97;64.39
74178;DHT22;62540;48.456;-4.456;2023-02-28T14:46:55;10.90;64.03
74178;DHT22;62540;48.456;-4.456;2023-02-28T14:54:31;10.47;63.88
74178;DHT22;62540;48.456;-4.456;2023-02-28T14:56:57;10.28;64.73
74178;DHT22;62540;48.456;-4.456;2023-02-28T14:59:28;10.18;65.38
74178;DHT22;62540;48.456;-4.456;2023-02-28T15:02:23;10.10;66.55
74178;DHT22;62540;48.456;-4.456;2023-02-28T15:04:55;10.12;67.26
74178;DHT22;62540;48.456;-4.456;2023-02-28T15:07:21;10.15;66.70
74178;DHT22;62540;48.456;-4.456;2023-02-28T15:10:30;10.28;67.64
74178;DHT22;62540;48.456;-4.456;2023-02-28T15:13:07;10.43;67.00
74178;DHT22;62540;48.456;-4.456;2023-02-28T15:15:53;10.47;66.70
74178;DHT22;62540;48.456;-4.456;2023-02-28T15:20:51;10.47;63.47
74178;DHT22;62540;48.456;-4.456;2023-02-28T15:23:19;10.35;62.54
74178;DHT22;62540;48.456;-4.456;2023-02-28T15:25:45;10.35;63.44
74178;DHT22;62540;48.456;-4.456;2023-02-28T15:28:15;10.32;63.04
74178;DHT22;62540;48.456;-4.456;2023-02-28T15:31:01;10.25;63.16
74178;DHT22;62540;48.456;-4.456;2023-02-28T15:33:28;10.25;62.50
74178;DHT22;62540;48.456;-4.456;2023-02-28T15:36:14;10.23;62.04
74178;DHT22;62540;48.456;-4.456;2023-02-28T15:38:40;10.12;61.19
74178;DHT22;62540;48.456;-4.456;2023-02-28T15:41:23;10.05;62.11
74178;DHT22;62540;48.456;-4.456;2023-02-28T15:44:15;9.97;62.05
74178;DHT22;62540;48.456;-4.456;2023-02-28T15:47:17;9.94;62.29
74178;DHT22;62540;48.456;-4.456;2023-02-28T15:49:54;9.89;62.16
74178;DHT22;62540;48.456;-4.456;2023-02-28T15:52:37;9.89;62.10
74178;DHT22;62540;48.456;-4.456;2023-02-28T15:57:50;9.82;62.64
74178;DHT22;62540;48.456;-4.456;2023-02-28T16:00:23;9.73;64.74
74178;DHT22;62540;48.456;-4.456;2023-02-28T16:02:49;9.64;65.96
74178;DHT22;62540;48.456;-4.456;2023-02-28T16:05:30;9.50;65.83
74178;DHT22;62540;48.456;-4.456;2023-02-28T16:07:59;9.34;67.63
74178;DHT22;62540;48.456;-4.456;2023-02-28T16:10:26;9.26;66.47
74178;DHT22;62540;48.456;-4.456;2023-02-28T16:12:56;9.16;68.30
74178;DHT22;62540;48.456;-4.456;2023-02-28T16:15:28;9.18;68.06
74178;DHT22;62540;48.456;-4.456;2023-02-28T16:17:55;9.22;68.47
74178;DHT22;62540;48.456;-4.456;2023-02-28T16:20:27;9.19;67.94
74178;DHT22;62540;48.456;-4.456;2023-02-28T16:22:53;9.18;67.71
74178;DHT22;62540;48.456;-4.456;2023-02-28T16:25:24;9.16;67.93
74178;DHT22;62540;48.456;-4.456;2023-02-28T16:27:53;9.18;67.69
74178;DHT22;62540;48.456;-4.456;2023-02-28T16:30:22;9.26;67.36
74178;DHT22;62540;48.456;-4.456;2023-02-28T16:32:49;9.26;67.26
74178;DHT22;62540;48.456;-4.456;2023-02-28T16:35:15;9.26;67.08
74178;DHT22;62540;48.456;-4.456;2023-02-28T16:37:41;9.23;67.22
74178;DHT22;62540;48.456;-4.456;2023-02-28T16:40:13;9.24;67.60
74178;DHT22;62540;48.456;-4.456;2023-02-28T16:42:39;9.27;67.70
74178;DHT22;62540;48.456;-4.456;2023-02-28T16:45:06;9.33;67.76
74178;DHT22;62540;48.456;-4.456;2023-02-28T16:47:31;9.33;67.72
74178;DHT22;62540;48.456;-4.456;2023-02-28T16:49:58;9.37;67.82
74178;DHT22;62540;48.456;-4.456;2023-02-28T16:52:23;9.33;67.01
74178;DHT22;62540;48.456;-4.456;2023-02-28T16:54:48;9.31;66.37
74178;DHT22;62540;48.456;-4.456;2023-02-28T16:57:20;9.29;66.45
74178;DHT22;62540;48.456;-4.456;2023-02-28T16:59:47;9.29;66.44
74178;DHT22;62540;48.456;-4.456;2023-02-28T17:02:14;9.24;66.86
74178;DHT22;62540;48.456;-4.456;2023-02-28T17:04:41;9.24;66.68
74178;DHT22;62540;48.456;-4.456;2023-02-28T17:07:14;9.24;66.74
74178;DHT22;62540;48.456;-4.456;2023-02-28T17:09:41;9.22;66.54
74178;DHT22;62540;48.456;-4.456;2023-02-28T17:12:07;9.20;66.64
74178;DHT22;62540;48.456;-4.456;2023-02-28T17:14:33;9.18;67.11
74178;DHT22;62540;48.456;-4.456;2023-02-28T17:16:58;9.16;67.26
74178;DHT22;62540;48.456;-4.456;2023-02-28T17:19:23;9.16;67.12
74178;DHT22;62540;48.456;-4.456;2023-02-28T17:21:49;9.19;66.70
74178;DHT22;62540;48.456;-4.456;2023-02-28T17:24:14;9.19;66.91
74178;DHT22;62540;48.456;-4.456;2023-02-28T17:26:41;9.20;66.94
74178;DHT22;62540;48.456;-4.456;2023-02-28T17:29:19;9.20;66.78
74178;DHT22;62540;48.456;-4.456;2023-02-28T17:31:44;9.19;66.65
74178;DHT22;62540;48.456;-4.456;2023-02-28T17:34:10;9.16;66.56
74178;DHT22;62540;48.456;-4.456;2023-02-28T17:36:35;9.13;66.52
74178;DHT22;62540;48.456;-4.456;2023-02-28T17:39:03;9.13;66.25
74178;DHT22;62540;48.456;-4.456;2023-02-28T17:41:29;9.10;66.18
74178;DHT22;62540;48.456;-4.456;2023-02-28T17:43:56;9.06;65.98
74178;DHT22;62540;48.456;-4.456;2023-02-28T17:46:23;9.02;66.41
74178;DHT22;62540;48.456;-4.456;2023-02-28T17:48:50;9.01;65.83
74178;DHT22;62540;48.456;-4.456;2023-02-28T17:51:16;8.98;66.08
74178;DHT22;62540;48.456;-4.456;2023-02-28T17:53:42;8.93;66.42